Time;durP1;ratioP1;P1;durP2;ratioP2;P2;SDS_P1;SDS_P2;PMS_P1;PMS_P2;Temp;Humidity;BMP_temperature;BMP_pressure;BME280_temperature;BME280_humidity;BME280_pressure;Samples;Min_cycle;Max_cycle;Signal;HPM_P1;HPM_P2
2023/03/15 00:01:45;;;;;;;4.75;0.70;;;17.80;1.00;;;;;;5074103;28;20376;-38
2023/03/15 00:04:13;;;;;;;4.72;0.98;;;17.80;1.00;;;;;;5073436;28;20036;-39
2023/03/15 00:06:40;;;;;;;2.20;0.70;;;17.80;1.00;;;;;;5073910;28;20086;-38
2023/03/15 00:09:07;;;;;;;1.35;0.50;;;17.70;1.00;;;;;;5074098;28;20044;-38
2023/03/15 00:11:33;;;;;;;2.10;0.60;;;17.70;1.00;;;;;;5074040;28;20048;-38
2023/03/15 00:14:04;;;;;;;2.45;0.60;;;17.70;1.00;;;;;;5073115;28;20102;-38
2023/03/15 00:16:31;;;;;;;1.13;0.40;;;17.60;1.00;;;;;;5074115;28;20047;-38
2023/03/15 00:18:58;;;;;;;2.95;0.55;;;17.60;1.00;;;;;;5073638;28;20040;-38
2023/03/15 00:21:26;;;;;;;1.88;0.70;;;17.50;1.00;;;;;;5073419;28;20040;-38
2023/03/15 00:23:53;;;;;;;2.38;0.57;;;17.50;1.00;;;;;;5073052;28;20048;-38
2023/03/15 00:26:20;;;;;;;1.88;0.75;;;17.50;1.00;;;;;;5073640;28;20064;-38
2023/03/15 00:28:47;;;;;;;2.08;0.52;;;17.40;1.00;;;;;;5072371;28;20079;-39
2023/03/15 00:31:17;;;;;;;3.63;0.57;;;17.40;1.00;;;;;;5073487;28;20119;-38
2023/03/15 00:33:45;;;;;;;3.47;0.50;;;17.40;1.00;;;;;;5072632;28;20458;-39
2023/03/15 00:36:14;;;;;;;5.10;0.80;;;17.30;1.00;;;;;;5073468;28;20041;-39
2023/03/15 00:38:43;;;;;;;3.78;0.70;;;17.30;1.00;;;;;;5073514;28;20052;-39
2023/03/15 00:41:15;;;;;;;1.65;0.70;;;17.30;1.00;;;;;;5068461;22;20395;-37
2023/03/15 00:43:43;;;;;;;1.57;0.40;;;17.20;1.00;;;;;;5068055;28;20491;-37
2023/03/15 00:46:10;;;;;;;1.83;0.57;;;17.20;1.00;;;;;;5093519;28;20498;-37
2023/03/15 00:48:37;;;;;;;5.63;1.02;;;17.20;1.00;;;;;;5075355;28;20036;-37
2023/03/15 00:51:10;;;;;;;4.30;0.57;;;17.20;1.00;;;;;;5061354;28;20469;-37
2023/03/15 00:53:39;;;;;;;2.67;0.73;;;17.10;1.00;;;;;;5063759;28;20051;-37
2023/03/15 00:56:10;;;;;;;3.10;1.05;;;17.10;1.00;;;;;;5064676;28;20041;-37
2023/03/15 00:58:37;;;;;;;3.08;0.50;;;17.00;1.00;;;;;;5054853;28;20535;-36
2023/03/15 01:01:09;;;;;;;3.33;0.50;;;17.00;1.00;;;;;;5054659;28;20055;-36
2023/03/15 01:03:37;;;;;;;1.88;0.30;;;17.00;1.00;;;;;;5064878;28;20056;-38
2023/03/15 01:06:21;;;;;;;1.35;0.63;;;17.00;1.00;;;;;;5054891;28;20051;-37
2023/03/15 01:08:50;;;;;;;2.03;0.60;;;16.90;1.00;;;;;;5054986;28;20045;-37
2023/03/15 01:11:23;;;;;;;1.60;0.43;;;16.90;1.00;;;;;;5052923;28;20041;-38
2023/03/15 01:13:51;;;;;;;;;;;16.90;1.00;;;;;;5066836;28;20044;-37
2023/03/15 01:16:17;;;;;;;2.50;0.47;;;16.90;1.00;;;;;;5054818;28;19926;-37
2023/03/15 01:18:44;;;;;;;2.30;0.77;;;16.80;1.00;;;;;;5054767;28;20044;-37
2023/03/15 01:21:13;;;;;;;5.55;1.23;;;16.80;1.00;;;;;;5072945;28;20047;-37
2023/03/15 01:23:40;;;;;;;2.42;0.60;;;16.80;1.00;;;;;;5071825;28;20468;-36
2023/03/15 01:26:11;;;;;;;4.13;0.80;;;16.70;1.00;;;;;;5054691;28;20045;-37
2023/03/15 01:28:38;;;;;;;2.78;0.52;;;16.70;1.00;;;;;;5054463;28;20048;-37
2023/03/15 01:31:05;;;;;;;4.25;0.70;;;16.70;1.00;;;;;;5054477;28;20045;-37
2023/03/15 01:33:32;;;;;;;1.52;0.40;;;16.70;1.00;;;;;;5070993;28;20535;-37
2023/03/15 01:36:04;;;;;;;2.47;0.47;;;16.60;1.00;;;;;;5054354;28;20044;-37
2023/03/15 01:38:32;;;;;;;2.17;0.30;;;16.60;1.00;;;;;;5054470;28;20049;-37
2023/03/15 01:41:00;;;;;;;2.33;0.40;;;16.60;1.00;;;;;;5072308;28;20127;-37
2023/03/15 01:43:30;;;;;;;2.88;0.40;;;16.60;1.00;;;;;;5053474;28;20048;-38
2023/03/15 01:46:00;;;;;;;2.25;0.90;;;16.50;1.00;;;;;;5054378;28;20049;-37
2023/03/15 01:48:37;;;;;;;2.13;0.80;;;16.50;1.00;;;;;;5054122;28;20741;-37
2023/03/15 01:51:30;;;;;;;2.83;0.60;;;16.50;1.00;;;;;;5054135;28;20055;-37
2023/03/15 01:54:09;;;;;;;4.63;1.13;;;16.50;1.00;;;;;;5071374;28;20139;-38
2023/03/15 01:56:43;;;;;;;5.22;0.88;;;16.40;1.00;;;;;;5054092;28;20465;-37
2023/03/15 01:59:18;;;;;;;2.28;0.75;;;16.40;1.00;;;;;;5053956;28;20515;-37
2023/03/15 02:01:49;;;;;;;2.78;0.40;;;16.40;1.00;;;;;;5054062;28;20049;-37
2023/03/15 02:04:23;;;;;;;3.72;0.95;;;16.40;1.00;;;;;;5053247;28;20435;-37
2023/03/15 02:06:58;;;;;;;2.70;0.60;;;16.40;1.00;;;;;;5053965;28;20044;-37
2023/03/15 02:09:49;;;;;;;4.68;0.63;;;16.30;1.00;;;;;;5053765;28;20056;-37
2023/03/15 02:12:17;;;;;;;3.67;0.90;;;16.30;1.00;;;;;;5053585;28;20415;-37
2023/03/15 02:14:49;;;;;;;2.58;1.00;;;16.30;1.00;;;;;;5053262;28;20549;-38
2023/03/15 02:17:21;;;;;;;6.03;1.23;;;16.30;1.00;;;;;;5053934;28;20072;-38
2023/03/15 02:20:03;;;;;;;3.55;0.93;;;16.30;1.00;;;;;;5053520;28;20044;-38
2023/03/15 02:22:45;;;;;;;4.53;0.80;;;16.20;1.00;;;;;;5053509;28;20094;-38
2023/03/15 02:25:40;;;;;;;1.10;0.43;;;16.20;1.00;;;;;;5053815;28;20192;-37
2023/03/15 02:28:10;;;;;;;4.38;1.25;;;16.20;1.00;;;;;;5053583;28;20048;-38
2023/03/15 02:30:37;;;;;;;5.35;1.00;;;16.20;1.00;;;;;;5071613;28;20127;-38
2023/03/15 02:33:09;;;;;;;7.22;1.13;;;16.20;1.00;;;;;;5053152;28;20519;-37
2023/03/15 02:35:36;;;;;;;2.80;0.90;;;16.10;1.00;;;;;;5053914;28;20052;-38
2023/03/15 02:38:03;;;;;;;5.22;0.63;;;16.10;1.00;;;;;;5053580;28;20036;-37
2023/03/15 02:40:30;;;;;;;2.88;1.10;;;16.10;1.00;;;;;;5053513;28;20040;-38
2023/03/15 02:43:02;;;;;;;2.30;0.50;;;16.10;1.00;;;;;;5052800;28;20143;-38
2023/03/15 02:45:31;;;;;;;3.88;0.73;;;16.10;1.00;;;;;;5054455;28;20040;-38
2023/03/15 02:48:01;;;;;;;3.42;0.65;;;16.00;1.00;;;;;;5057517;28;20047;-37
2023/03/15 02:50:28;;;;;;;2.80;0.70;;;16.00;1.00;;;;;;5075431;28;20454;-36
2023/03/15 02:52:54;;;;;;;2.63;0.90;;;16.00;1.00;;;;;;5056645;28;20044;-37
2023/03/15 02:55:21;;;;;;;2.28;0.40;;;16.00;1.00;;;;;;5057389;28;20052;-37
2023/03/15 02:57:48;;;;;;;2.08;0.50;;;16.00;1.00;;;;;;5075227;28;20051;-37
2023/03/15 03:00:15;;;;;;;2.65;0.70;;;16.00;1.00;;;;;;5057249;28;20488;-36
2023/03/15 03:02:45;;;;;;;2.00;0.68;;;15.90;1.00;;;;;;5056545;28;20487;-36
2023/03/15 03:05:14;;;;;;;4.30;0.88;;;15.90;1.00;;;;;;5057172;28;20110;-37
2023/03/15 03:07:41;;;;;;;2.40;0.40;;;15.90;1.00;;;;;;5057039;28;20040;-37
2023/03/15 03:10:14;;;;;;;4.03;0.70;;;15.90;1.00;;;;;;5056985;28;20045;-37
2023/03/15 03:12:52;;;;;;;2.20;0.60;;;15.90;1.00;;;;;;5056704;28;20046;-37
2023/03/15 03:15:24;;;;;;;1.77;0.40;;;15.80;1.00;;;;;;5057173;28;20078;-37
2023/03/15 03:17:51;;;;;;;2.15;0.60;;;15.80;1.00;;;;;;5074789;28;20044;-37
2023/03/15 03:20:18;;;;;;;2.08;0.32;;;15.80;1.00;;;;;;5056748;28;20530;-37
2023/03/15 03:22:46;;;;;;;3.42;0.68;;;15.80;1.00;;;;;;5056296;28;20055;-37
2023/03/15 03:25:12;;;;;;;3.33;0.63;;;15.80;1.00;;;;;;5056750;28;20064;-36
2023/03/15 03:27:40;;;;;;;2.78;0.82;;;15.70;1.00;;;;;;5056976;28;20574;-37
2023/03/15 03:30:12;;;;;;;6.95;0.60;;;15.70;1.00;;;;;;5056765;28;20135;-37
2023/03/15 03:32:44;;;;;;;3.70;0.82;;;15.70;1.00;;;;;;5055874;28;20526;-37
2023/03/15 03:35:12;;;;;;;4.25;0.70;;;15.70;1.00;;;;;;5074640;28;20044;-37
2023/03/15 03:37:41;;;;;;;5.20;0.50;;;15.70;1.00;;;;;;5056644;28;20068;-37
2023/03/15 03:40:13;;;;;;;2.47;0.70;;;15.70;1.00;;;;;;5056459;28;20047;-37
2023/03/15 03:42:41;;;;;;;3.85;1.10;;;15.60;1.00;;;;;;5073777;28;20488;-37
2023/03/15 03:45:08;;;;;;;2.75;0.65;;;15.60;1.00;;;;;;5056396;28;20044;-37
2023/03/15 03:47:40;;;;;;;2.63;0.50;;;15.60;1.00;;;;;;5056632;28;20041;-37
2023/03/15 03:50:09;;;;;;;6.90;0.50;;;15.60;1.00;;;;;;5056524;28;20053;-37
2023/03/15 03:52:36;;;;;;;2.58;0.40;;;15.60;1.00;;;;;;5056059;28;20083;-37
2023/03/15 03:55:07;;;;;;;2.53;0.30;;;15.60;1.00;;;;;;5074449;28;20442;-37
2023/03/15 03:57:33;;;;;;;1.42;0.50;;;15.60;1.00;;;;;;5073567;28;20136;-38
2023/03/15 04:00:05;;;;;;;2.47;0.50;;;15.50;1.00;;;;;;5056124;28;20136;-38
2023/03/15 04:02:43;;;;;;;1.98;0.60;;;15.50;1.00;;;;;;5073549;28;20439;-37
2023/03/15 04:05:13;;;;;;;2.75;0.60;;;15.50;1.00;;;;;;5056095;28;20045;-38
2023/03/15 04:07:41;;;;;;;1.02;0.47;;;15.50;1.00;;;;;;5056208;28;20304;-38
2023/03/15 04:10:13;;;;;;;1.67;0.32;;;15.50;1.00;;;;;;5055779;28;20045;-38
2023/03/15 04:12:44;;;;;;;4.13;0.50;;;15.50;1.00;;;;;;5055418;28;20072;-38
2023/03/15 04:15:12;;;;;;;2.15;0.40;;;15.40;1.00;;;;;;5055976;28;20067;-38
2023/03/15 04:17:39;;;;;;;4.07;0.55;;;15.40;1.00;;;;;;5039526;28;20048;-38
2023/03/15 04:20:09;;;;;;;2.60;0.80;;;15.40;1.00;;;;;;5055669;28;20044;-38
2023/03/15 04:22:39;;;;;;;2.03;0.73;;;15.40;1.00;;;;;;5038985;28;20043;-38
2023/03/15 04:25:39;;;;;;;1.23;0.30;;;15.40;1.00;;;;;;5054096;28;20080;-37
2023/03/15 04:28:24;;;;;;;3.88;0.40;;;15.40;1.00;;;;;;5059035;28;20055;-38
2023/03/15 04:30:58;;;;;;;1.23;0.40;;;15.30;1.00;;;;;;5055402;28;20044;-38
2023/03/15 04:33:36;;;;;;;0.82;0.45;;;15.30;1.00;;;;;;5054935;28;20048;-38
2023/03/15 04:36:06;;;;;;;2.42;0.43;;;15.30;1.00;;;;;;5073568;28;20058;-38
2023/03/15 04:39:02;;;;;;;2.20;0.40;;;15.30;1.00;;;;;;5073643;28;20051;-41
2023/03/15 04:41:43;;;;;;;1.23;0.30;;;15.30;1.00;;;;;;5073434;28;20032;-38
2023/03/15 04:44:39;;;;;;;2.80;0.40;;;15.20;1.00;;;;;;5063448;28;20515;-37
2023/03/15 04:47:12;;;;;;;2.05;0.55;;;15.20;1.00;;;;;;5073489;28;20132;-37
2023/03/15 04:49:58;;;;;;;1.70;0.55;;;15.20;1.00;;;;;;5055226;28;20048;-38
2023/03/15 04:52:57;;;;;;;0.75;0.20;;;15.20;1.00;;;;;;5017573;28;20050;-37
2023/03/15 04:55:38;;;;;;;1.45;0.45;;;15.20;1.00;;;;;;5055382;28;20139;-37
2023/03/15 04:58:13;;;;;;;1.00;0.40;;;15.20;1.00;;;;;;5073250;28;20063;-37
2023/03/15 05:00:56;;;;;;;0.95;0.38;;;15.20;1.00;;;;;;5054937;28;20044;-38
2023/03/15 05:03:42;;;;;;;1.98;0.43;;;15.20;1.00;;;;;;5072475;28;20581;-37
2023/03/15 05:06:30;;;;;;;0.98;0.32;;;15.10;1.00;;;;;;5055108;28;20132;-38
2023/03/15 05:09:26;;;;;;;2.10;0.30;;;15.10;1.00;;;;;;5050963;28;20057;-37
2023/03/15 05:12:12;;;;;;;1.02;0.30;;;15.10;1.00;;;;;;5059895;28;20518;-38
2023/03/15 05:14:57;;;;;;;1.92;0.73;;;15.10;1.00;;;;;;5052723;28;20064;-37
2023/03/15 05:17:33;;;;;;;1.17;0.32;;;15.10;1.00;;;;;;5034931;28;20064;-37
2023/03/15 05:20:32;;;;;;;1.70;0.75;;;15.10;1.00;;;;;;5052783;28;20045;-36
2023/03/15 05:23:23;;;;;;;20.42;3.10;;;15.00;1.00;;;;;;5034109;28;20412;-37
2023/03/15 05:26:08;;;;;;;2.97;0.73;;;15.00;1.00;;;;;;5034745;28;20045;-36
2023/03/15 05:28:52;;;;;;;4.53;0.55;;;15.00;1.00;;;;;;5052639;28;20049;-38
2023/03/15 05:31:49;;;;;;;1.40;0.30;;;15.00;1.00;;;;;;4980912;28;20082;-37
2023/03/15 05:34:31;;;;;;;2.03;0.65;;;15.00;1.00;;;;;;5033723;28;20052;-38
2023/03/15 05:37:16;;;;;;;1.00;0.30;;;15.00;1.00;;;;;;5052791;28;20106;-37
2023/03/15 05:40:03;;;;;;;1.30;0.20;;;15.00;1.00;;;;;;5052277;28;20118;-38
2023/03/15 05:42:56;;;;;;;6.40;0.95;;;15.00;1.00;;;;;;5048311;28;20049;-37
2023/03/15 05:45:55;;;;;;;3.80;0.38;;;15.00;1.00;;;;;;5026568;28;20049;-37
2023/03/15 05:48:57;;;;;;;1.30;0.15;;;15.00;1.00;;;;;;5033444;28;20404;-37
2023/03/15 05:51:45;;;;;;;4.55;0.60;;;14.90;1.00;;;;;;5029360;28;20135;-37
2023/03/15 05:54:31;;;;;;;1.67;0.68;;;14.90;1.00;;;;;;5047072;28;20178;-37
2023/03/15 05:57:16;;;;;;;2.40;0.40;;;14.90;1.00;;;;;;5048332;28;20067;-38
2023/03/15 05:59:59;;;;;;;4.57;0.50;;;14.90;1.00;;;;;;5042227;28;20052;-37
2023/03/15 06:02:43;;;;;;;3.65;0.57;;;14.90;1.00;;;;;;5071352;28;20348;-37
2023/03/15 06:05:38;;;;;;;2.00;0.35;;;14.90;1.00;;;;;;5053873;28;20053;-37
2023/03/15 06:08:10;;;;;;;3.50;0.50;;;14.80;1.00;;;;;;5053905;28;20055;-38
2023/03/15 06:10:42;;;;;;;3.95;1.00;;;14.80;1.00;;;;;;5053783;28;20056;-38
2023/03/15 06:13:10;;;;;;;3.22;0.43;;;14.80;1.00;;;;;;5052998;28;20496;-39
2023/03/15 06:15:36;;;;;;;8.68;0.32;;;14.80;1.00;;;;;;5053727;28;20131;-39
2023/03/15 06:18:05;;;;;;;2.35;0.38;;;14.80;1.00;;;;;;5054004;28;20458;-38
2023/03/15 06:20:32;;;;;;;2.22;0.20;;;14.80;1.00;;;;;;5071349;28;20045;-37
2023/03/15 06:23:06;;;;;;;;;;;14.90;1.00;;;;;;5053415;28;20045;-38
2023/03/15 06:25:41;;;;;;;3.47;0.40;;;15.10;1.00;;;;;;5053596;28;20334;-38
2023/03/15 06:28:08;;;;;;;3.90;0.47;;;15.30;1.00;;;;;;5053833;28;20053;-38
2023/03/15 06:30:36;;;;;;;1.70;0.25;;;15.40;1.00;;;;;;5053382;28;20060;-38
2023/03/15 06:33:03;;;;;;;3.30;0.60;;;15.40;1.00;;;;;;5052971;28;20053;-38
2023/03/15 06:35:30;;;;;;;5.88;0.85;;;15.30;1.00;;;;;;5053613;28;20082;-38
2023/03/15 06:37:57;;;;;;;1.92;0.52;;;15.20;1.00;;;;;;5053468;28;20052;-38
2023/03/15 06:40:23;;;;;;;1.58;0.70;;;15.10;1.00;;;;;;5064876;22;20066;-38
2023/03/15 06:42:50;;;;;;;1.23;0.40;;;15.10;1.00;;;;;;5059023;28;20044;-38
2023/03/15 06:45:19;;;;;;;1.45;0.38;;;15.00;1.00;;;;;;5073698;28;20071;-38
2023/03/15 06:47:46;;;;;;;2.67;0.60;;;15.00;1.00;;;;;;5073644;28;20056;-38
2023/03/15 06:50:15;;;;;;;2.03;0.63;;;14.90;1.00;;;;;;5069575;28;20051;-38
2023/03/15 06:52:41;;;;;;;5.10;0.85;;;14.90;1.00;;;;;;5070827;28;20400;-38
2023/03/15 06:55:11;;;;;;;2.15;0.55;;;14.90;1.00;;;;;;5053475;28;20044;-38
2023/03/15 06:57:39;;;;;;;0.73;0.40;;;14.90;1.00;;;;;;5053458;28;20072;-38
2023/03/15 07:00:11;;;;;;;1.90;0.20;;;14.80;1.00;;;;;;5071485;28;20494;-38
2023/03/15 07:02:38;;;;;;;2.08;0.50;;;14.80;1.00;;;;;;5070642;28;20044;-39
2023/03/15 07:05:05;;;;;;;3.90;1.02;;;14.80;1.00;;;;;;5071131;28;20051;-39
2023/03/15 07:07:32;;;;;;;2.28;0.45;;;14.80;1.00;;;;;;5071254;28;20044;-38
2023/03/15 07:09:59;;;;;;;1.83;0.45;;;14.80;1.00;;;;;;5053338;28;20071;-38
2023/03/15 07:12:25;;;;;;;1.15;0.43;;;14.80;1.00;;;;;;5070968;28;20052;-39
2023/03/15 07:14:52;;;;;;;2.25;0.60;;;14.70;1.00;;;;;;5070814;28;20110;-39
2023/03/15 07:17:19;;;;;;;1.83;0.70;;;14.70;1.00;;;;;;5071172;28;20044;-39
2023/03/15 07:19:46;;;;;;;2.33;0.40;;;14.70;1.00;;;;;;5070921;28;20048;-38
2023/03/15 07:22:23;;;;;;;1.77;0.40;;;14.70;1.00;;;;;;5070950;28;20051;-38
2023/03/15 07:24:50;;;;;;;1.77;0.68;;;14.60;1.00;;;;;;5070662;28;20036;-39
2023/03/15 07:27:17;;;;;;;1.42;0.40;;;14.60;1.00;;;;;;5070985;28;20047;-39
2023/03/15 07:29:45;;;;;;;2.85;0.70;;;14.60;1.00;;;;;;5071480;28;20468;-38
2023/03/15 07:32:12;;;;;;;3.38;0.60;;;14.60;1.00;;;;;;5072389;28;20487;-38
2023/03/15 07:34:39;;;;;;;1.92;0.47;;;14.60;1.00;;;;;;5074031;28;20488;-38
2023/03/15 07:37:05;;;;;;;0.43;0.22;;;14.60;1.00;;;;;;5074411;28;20074;-38
2023/03/15 07:39:32;;;;;;;1.20;0.38;;;14.60;1.00;;;;;;5074520;28;20040;-38
2023/03/15 07:41:59;;;;;;;2.05;0.38;;;14.60;1.00;;;;;;5074424;28;20036;-38
2023/03/15 07:44:31;;;;;;;2.38;0.50;;;14.60;1.00;;;;;;5055459;28;20061;-38
2023/03/15 07:46:57;;;;;;;9.20;1.13;;;14.50;1.00;;;;;;5074407;28;20287;-39
2023/03/15 07:49:25;;;;;;;4.15;0.60;;;14.50;1.00;;;;;;5074508;28;20127;-39
2023/03/15 07:51:57;;;;;;;2.17;1.15;;;14.50;1.00;;;;;;5074249;28;20127;-38
2023/03/15 07:54:24;;;;;;;1.67;0.55;;;14.50;1.00;;;;;;5073475;28;20048;-38
2023/03/15 07:56:57;;;;;;;2.28;1.05;;;14.50;1.00;;;;;;5074055;28;20257;-39
2023/03/15 07:59:49;;;;;;;3.60;0.70;;;14.50;1.00;;;;;;5074030;28;20140;-38
2023/03/15 08:02:19;;;;;;;1.77;0.77;;;14.50;1.00;;;;;;5073765;28;20039;-38
2023/03/15 08:05:00;;;;;;;0.98;0.38;;;14.50;1.00;;;;;;5072068;28;20044;-39
2023/03/15 08:07:27;;;;;;;2.95;0.60;;;14.50;1.00;;;;;;5073929;28;20047;-38
2023/03/15 08:09:53;;;;;;;5.00;0.50;;;14.40;1.00;;;;;;5073744;28;20045;-39
2023/03/15 08:12:20;;;;;;;1.90;0.70;;;14.40;1.00;;;;;;5073522;28;20051;-38
2023/03/15 08:14:47;;;;;;;5.35;0.63;;;14.40;1.00;;;;;;5073414;28;20075;-38
2023/03/15 08:17:15;;;;;;;2.95;0.45;;;14.40;1.00;;;;;;5073952;28;20068;-38
2023/03/15 08:19:42;;;;;;;1.17;0.57;;;14.40;1.00;;;;;;5073444;28;20446;-39
2023/03/15 08:22:09;;;;;;;1.85;0.47;;;14.40;1.00;;;;;;5073432;28;20111;-39
2023/03/15 08:24:36;;;;;;;4.47;1.20;;;14.40;1.00;;;;;;5072992;28;20029;-38
2023/03/15 08:27:03;;;;;;;3.10;0.40;;;14.40;1.00;;;;;;5073780;28;20061;-38
2023/03/15 08:29:30;;;;;;;2.25;0.30;;;14.40;1.00;;;;;;5073486;28;20161;-39
2023/03/15 08:31:57;;;;;;;2.75;0.88;;;14.40;1.00;;;;;;5073496;28;20051;-39
2023/03/15 08:34:24;;;;;;;3.58;0.80;;;14.40;1.00;;;;;;5072607;28;20113;-39
2023/03/15 08:36:51;;;;;;;2.50;0.57;;;14.40;1.00;;;;;;5073273;28;20094;-38
2023/03/15 08:39:18;;;;;;;0.95;0.32;;;14.40;1.00;;;;;;5073243;28;20135;-38
2023/03/15 08:41:46;;;;;;;5.05;1.08;;;14.40;1.00;;;;;;5073266;28;20029;-38
2023/03/15 08:44:13;;;;;;;2.22;0.82;;;14.40;1.00;;;;;;5072502;28;20323;-38
2023/03/15 08:46:39;;;;;;;2.78;0.80;;;14.40;1.00;;;;;;5073242;28;20040;-38
2023/03/15 08:49:06;;;;;;;1.52;0.88;;;14.40;1.00;;;;;;5072921;28;20117;-39
2023/03/15 08:51:33;;;;;;;1.40;0.43;;;14.40;1.00;;;;;;5073035;28;20040;-39
2023/03/15 08:54:02;;;;;;;1.98;0.90;;;14.40;1.00;;;;;;5072264;28;20041;-38
2023/03/15 08:56:31;;;;;;;2.88;0.82;;;14.40;1.00;;;;;;5072994;28;20514;-39
2023/03/15 08:58:58;;;;;;;1.02;0.52;;;14.50;1.00;;;;;;5073244;28;20328;-38
2023/03/15 09:01:24;;;;;;;1.63;0.50;;;14.50;1.00;;;;;;5072763;28;20045;-38
2023/03/15 09:03:51;;;;;;;2.83;0.57;;;14.50;1.00;;;;;;5071808;28;20036;-38
2023/03/15 09:06:18;;;;;;;3.15;1.38;;;14.60;1.00;;;;;;5055084;28;20123;-38
2023/03/15 09:08:45;;;;;;;3.05;0.50;;;14.60;1.00;;;;;;5072739;28;20566;-38
2023/03/15 09:11:12;;;;;;;2.13;0.60;;;14.60;1.00;;;;;;5072653;28;20076;-38
2023/03/15 09:13:39;;;;;;;2.28;0.52;;;14.60;1.00;;;;;;5072006;28;20049;-38
2023/03/15 09:16:06;;;;;;;3.50;0.52;;;14.70;1.00;;;;;;5072606;28;20049;-38
2023/03/15 09:18:33;;;;;;;2.70;0.57;;;14.70;1.00;;;;;;5072629;28;20056;-39
2023/03/15 09:21:00;;;;;;;2.63;0.47;;;14.80;1.00;;;;;;5072260;28;20037;-38
2023/03/15 09:23:27;;;;;;;1.95;0.65;;;14.80;1.00;;;;;;5071772;28;20032;-39
2023/03/15 09:25:54;;;;;;;2.50;0.65;;;14.80;1.00;;;;;;5072609;28;20442;-38
2023/03/15 09:28:21;;;;;;;2.08;0.50;;;14.90;1.00;;;;;;5072374;28;20050;-39
2023/03/15 09:30:47;;;;;;;1.27;0.35;;;14.90;1.00;;;;;;5072128;28;20542;-39
2023/03/15 09:33:14;;;;;;;2.08;0.40;;;14.90;1.00;;;;;;5071584;28;20094;-38
2023/03/15 09:35:41;;;;;;;2.00;0.38;;;14.90;1.00;;;;;;5072283;28;20496;-39
2023/03/15 09:38:09;;;;;;;2.85;1.05;;;15.00;1.00;;;;;;5072266;28;20040;-39
2023/03/15 09:40:43;;;;;;;1.42;0.40;;;15.00;1.00;;;;;;5072095;28;20041;-39
2023/03/15 09:43:40;;;;;;;4.60;0.50;;;15.10;1.00;;;;;;5071517;28;20115;-39
2023/03/15 09:46:32;;;;;;;1.33;0.50;;;15.10;1.00;;;;;;5072124;28;20071;-39
2023/03/15 09:49:30;;;;;;;3.53;0.30;;;15.10;1.00;;;;;;5072014;28;20147;-39
2023/03/15 09:52:10;;;;;;;1.83;0.55;;;15.20;1.00;;;;;;5072007;28;20078;-38
2023/03/15 09:54:45;;;;;;;2.40;0.60;;;15.20;1.00;;;;;;5071197;28;20039;-38
2023/03/15 09:57:21;;;;;;;3.60;1.15;;;15.20;1.00;;;;;;5071988;28;20059;-39
2023/03/15 09:59:52;;;;;;;2.58;0.93;;;15.20;1.00;;;;;;5071899;28;20060;-39
2023/03/15 10:02:30;;;;;;;2.60;0.65;;;15.30;1.00;;;;;;5071966;28;20044;-39
2023/03/15 10:05:11;;;;;;;2.22;0.47;;;15.30;1.00;;;;;;5071455;28;20044;-39
2023/03/15 10:07:38;;;;;;;3.08;0.73;;;15.40;1.00;;;;;;5071985;28;20037;-39
2023/03/15 10:10:20;;;;;;;1.70;0.60;;;15.40;1.00;;;;;;5071597;28;20079;-39
2023/03/15 10:13:30;;;;;;;3.05;0.55;;;15.50;1.00;;;;;;5071061;28;20048;-39
2023/03/15 10:16:20;;;;;;;4.10;0.50;;;15.50;1.00;;;;;;5071888;28;20460;-38
2023/03/15 10:19:27;;;;;;;1.38;0.43;;;15.50;1.00;;;;;;5071061;28;20049;-38
2023/03/15 10:21:54;;;;;;;1.33;0.43;;;15.50;1.00;;;;;;5071418;28;20044;-39
2023/03/15 10:24:39;;;;;;;3.95;0.75;;;15.50;1.00;;;;;;5070913;28;20134;-39
2023/03/15 10:27:19;;;;;;;2.33;0.32;;;15.60;1.00;;;;;;5072005;28;20470;-38
2023/03/15 10:29:49;;;;;;;1.73;0.70;;;15.60;1.00;;;;;;5071558;28;20032;-39
2023/03/15 10:32:18;;;;;;;2.25;0.45;;;15.60;1.00;;;;;;5071193;28;20059;-39
2023/03/15 10:34:48;;;;;;;2.63;0.80;;;15.70;1.00;;;;;;5071202;28;20446;-39
2023/03/15 10:37:15;;;;;;;3.72;0.60;;;15.70;1.00;;;;;;5071704;28;20036;-39
2023/03/15 10:39:47;;;;;;;2.47;0.85;;;15.70;1.00;;;;;;5071190;28;20503;-39
2023/03/15 10:42:32;;;;;;;1.85;1.00;;;15.70;1.00;;;;;;5071036;28;20076;-39
2023/03/15 10:45:19;;;;;;;1.27;0.32;;;15.80;1.00;;;;;;5070922;28;20094;-39
2023/03/15 10:47:47;;;;;;;2.25;0.70;;;15.80;1.00;;;;;;5071338;28;20041;-39
2023/03/15 10:50:28;;;;;;;4.88;1.00;;;15.80;1.00;;;;;;5071172;28;20048;-39
2023/03/15 10:52:57;;;;;;;3.83;0.52;;;15.80;1.00;;;;;;5070636;28;20040;-38
2023/03/15 10:55:35;;;;;;;2.88;0.50;;;15.80;1.00;;;;;;5071467;28;20036;-39
2023/03/15 10:58:25;;;;;;;2.70;0.65;;;15.80;1.00;;;;;;5071426;28;20052;-39
2023/03/15 11:01:09;;;;;;;3.70;1.08;;;15.80;1.00;;;;;;5070912;28;20384;-38
2023/03/15 11:03:37;;;;;;;2.75;0.68;;;15.80;1.00;;;;;;5052915;28;20041;-38
2023/03/15 11:06:20;;;;;;;2.08;0.68;;;15.90;1.00;;;;;;5071567;28;20041;-38
2023/03/15 11:08:47;;;;;;;;;;;15.90;1.00;;;;;;5075279;28;20036;-38
2023/03/15 11:11:14;;;;;;;1.65;0.57;;;15.80;1.00;;;;;;5075013;28;19921;-39
2023/03/15 11:13:41;;;;;;;2.97;0.45;;;15.80;1.00;;;;;;5074358;28;20083;-39
2023/03/15 11:16:14;;;;;;;1.42;0.65;;;15.80;1.00;;;;;;5074973;28;20040;-39
2023/03/15 11:19:02;;;;;;;1.27;0.40;;;15.90;1.00;;;;;;5074941;28;20044;-39
2023/03/15 11:21:32;;;;;;;1.30;0.32;;;15.80;1.00;;;;;;5074575;28;20218;-39
2023/03/15 11:24:02;;;;;;;2.67;1.00;;;15.90;1.00;;;;;;5074156;28;20041;-39
2023/03/15 11:26:34;;;;;;;1.88;0.63;;;15.90;1.00;;;;;;5074775;28;20044;-39
2023/03/15 11:29:13;;;;;;;2.13;0.85;;;15.90;1.00;;;;;;5074658;28;20036;-39
2023/03/15 11:31:40;;;;;;;3.15;0.40;;;15.90;1.00;;;;;;5074492;28;20058;-39
2023/03/15 11:34:34;;;;;;;1.33;0.40;;;15.90;1.00;;;;;;5073787;28;20074;-39
2023/03/15 11:37:19;;;;;;;2.22;0.75;;;15.90;1.00;;;;;;5074335;28;20517;-39
2023/03/15 11:40:01;;;;;;;2.35;0.60;;;15.90;1.00;;;;;;5074478;28;20154;-39
2023/03/15 11:42:52;;;;;;;3.03;0.50;;;15.90;1.00;;;;;;5074018;28;20087;-39
2023/03/15 11:45:41;;;;;;;1.98;0.68;;;15.90;1.00;;;;;;5074331;28;20041;-39
2023/03/15 11:48:46;;;;;;;0.60;0.20;;;15.90;1.00;;;;;;5074514;28;20149;-39
2023/03/15 11:51:13;;;;;;;1.13;0.55;;;15.80;1.00;;;;;;5074353;28;20063;-39
2023/03/15 11:53:44;;;;;;;3.17;0.85;;;15.80;1.00;;;;;;5073359;28;20044;-38
2023/03/15 11:56:26;;;;;;;2.88;0.50;;;15.80;1.00;;;;;;5074463;28;20064;-39
2023/03/15 11:59:11;;;;;;;3.85;0.50;;;15.80;1.00;;;;;;5074002;28;20050;-39
2023/03/15 12:01:48;;;;;;;2.13;0.68;;;15.80;1.00;;;;;;5074090;28;20458;-39
2023/03/15 12:04:36;;;;;;;2.10;0.60;;;15.80;1.00;;;;;;5073147;28;20056;-39
2023/03/15 12:07:28;;;;;;;2.47;0.68;;;15.80;1.00;;;;;;5073937;28;20036;-39
2023/03/15 12:10:02;;;;;;;3.40;1.00;;;15.80;1.00;;;;;;5060719;28;20496;-39
2023/03/15 12:12:30;;;;;;;3.55;0.52;;;15.80;1.00;;;;;;5073554;28;20127;-38
2023/03/15 12:15:17;;;;;;;1.92;0.43;;;15.80;1.00;;;;;;5073375;28;20044;-38
2023/03/15 12:17:49;;;;;;;2.67;0.70;;;15.80;1.00;;;;;;5073087;28;20055;-38
2023/03/15 12:20:19;;;;;;;3.13;0.87;;;15.80;1.00;;;;;;5073581;28;20079;-38
2023/03/15 12:23:20;;;;;;;2.80;0.57;;;15.70;1.00;;;;;;5072898;28;20037;-39
2023/03/15 12:25:54;;;;;;;2.30;0.80;;;15.70;1.00;;;;;;5035509;28;20515;-38
2023/03/15 12:28:27;;;;;;;2.03;0.73;;;15.70;1.00;;;;;;5073474;28;20040;-39
2023/03/15 12:30:58;;;;;;;2.15;0.43;;;15.70;1.00;;;;;;5073428;28;20040;-38
2023/03/15 12:33:27;;;;;;;1.20;0.22;;;15.70;1.00;;;;;;5072701;28;20119;-39
2023/03/15 12:36:10;;;;;;;2.08;0.57;;;15.70;1.00;;;;;;5073643;28;20056;-38
2023/03/15 12:38:40;;;;;;;2.45;0.47;;;15.70;1.00;;;;;;5073341;28;20063;-39
2023/03/15 12:41:28;;;;;;;2.72;0.70;;;15.70;1.00;;;;;;5073667;28;20045;-39
2023/03/15 12:44:30;;;;;;;1.90;0.30;;;15.70;1.00;;;;;;5072599;28;20548;-39
2023/03/15 12:46:59;;;;;;;3.75;0.73;;;15.70;1.00;;;;;;5073493;28;20040;-38
2023/03/15 12:49:26;;;;;;;2.78;0.30;;;15.60;1.00;;;;;;5073192;28;20613;-39
2023/03/15 12:51:55;;;;;;;3.75;0.40;;;15.60;1.00;;;;;;5073099;28;20545;-39
2023/03/15 12:54:44;;;;;;;3.00;0.60;;;15.60;1.00;;;;;;5072537;28;20040;-39
2023/03/15 12:57:20;;;;;;;3.00;0.50;;;15.60;1.00;;;;;;5072956;28;20049;-39
2023/03/15 12:59:54;;;;;;;2.30;0.68;;;15.60;1.00;;;;;;5072627;28;20127;-39
2023/03/15 13:02:25;;;;;;;6.47;0.70;;;15.60;1.00;;;;;;5072540;28;20045;-39
2023/03/15 13:05:08;;;;;;;1.27;0.55;;;15.60;1.00;;;;;;5073161;28;20083;-39
2023/03/15 13:07:49;;;;;;;4.70;0.75;;;15.60;1.00;;;;;;5072624;28;20043;-39
2023/03/15 13:10:38;;;;;;;4.07;0.50;;;15.60;1.00;;;;;;5072636;28;20488;-38
2023/03/15 13:13:40;;;;;;;4.05;0.70;;;15.60;1.00;;;;;;5071927;28;20086;-38
2023/03/15 13:16:18;;;;;;;2.50;0.52;;;15.50;1.00;;;;;;5072685;28;20037;-39
2023/03/15 13:18:58;;;;;;;2.55;0.80;;;15.50;1.00;;;;;;5072805;28;20032;-39
2023/03/15 13:21:36;;;;;;;2.33;0.50;;;15.50;1.00;;;;;;5072349;28;20072;-39
2023/03/15 13:24:11;;;;;;;2.20;0.47;;;15.50;1.00;;;;;;5071737;28;20041;-39
2023/03/15 13:26:40;;;;;;;1.05;0.32;;;15.50;1.00;;;;;;5072516;28;20529;-39
2023/03/15 13:29:18;;;;;;;4.05;0.63;;;15.50;1.00;;;;;;5071473;28;20045;-38
2023/03/15 13:31:45;;;;;;;2.08;0.65;;;15.50;1.00;;;;;;5072409;28;20494;-39
2023/03/15 13:34:20;;;;;;;4.45;0.60;;;15.50;1.00;;;;;;5071424;28;20047;-39